sensor_id;sensor_type;location;lat;lon;timestamp;temperature;humidity
20400;DHT22;10359;53.596;22.520;2023-04-25T00:01:25;12.40;99.90
20400;DHT22;10359;53.596;22.520;2023-04-25T00:03:55;12.40;99.90
20400;DHT22;10359;53.596;22.520;2023-04-25T00:06:25;12.40;99.90
20400;DHT22;10359;53.596;22.520;2023-04-25T00:08:55;12.40;99.90
20400;DHT22;10359;53.596;22.520;2023-04-25T00:11:25;12.60;99.90
20400;DHT22;10359;53.596;22.520;2023-04-25T00:13:56;12.60;99.90
20400;DHT22;10359;53.596;22.520;2023-04-25T00:16:25;12.80;99.90
20400;DHT22;10359;53.596;22.520;2023-04-25T00:18:55;12.80;99.90
20400;DHT22;10359;53.596;22.520;2023-04-25T00:21:24;12.90;99.90
20400;DHT22;10359;53.596;22.520;2023-04-25T00:23:53;12.90;99.90
20400;DHT22;10359;53.596;22.520;2023-04-25T00:26:25;12.90;99.90
20400;DHT22;10359;53.596;22.520;2023-04-25T00:28:54;13.00;99.90
20400;DHT22;10359;53.596;22.520;2023-04-25T00:31:23;13.00;99.90
20400;DHT22;10359;53.596;22.520;2023-04-25T00:33:52;13.20;99.90
20400;DHT22;10359;53.596;22.520;2023-04-25T00:36:22;13.30;99.90
20400;DHT22;10359;53.596;22.520;2023-04-25T00:38:52;13.30;99.90
20400;DHT22;10359;53.596;22.520;2023-04-25T00:41:22;13.40;99.90
20400;DHT22;10359;53.596;22.520;2023-04-25T00:43:54;13.50;99.90
20400;DHT22;10359;53.596;22.520;2023-04-25T00:46:24;13.60;99.90
20400;DHT22;10359;53.596;22.520;2023-04-25T00:48:53;13.60;99.90
20400;DHT22;10359;53.596;22.520;2023-04-25T00:51:23;13.70;99.90
20400;DHT22;10359;53.596;22.520;2023-04-25T00:53:53;13.70;99.90
20400;DHT22;10359;53.596;22.520;2023-04-25T00:56:22;13.70;99.90
20400;DHT22;10359;53.596;22.520;2023-04-25T00:58:54;13.80;99.90
20400;DHT22;10359;53.596;22.520;2023-04-25T01:01:24;13.80;99.90
20400;DHT22;10359;53.596;22.520;2023-04-25T01:03:54;13.90;99.90
20400;DHT22;10359;53.596;22.520;2023-04-25T01:06:24;13.90;99.90
20400;DHT22;10359;53.596;22.520;2023-04-25T01:08:55;13.90;99.90
20400;DHT22;10359;53.596;22.520;2023-04-25T01:11:24;13.90;99.90
20400;DHT22;10359;53.596;22.520;2023-04-25T01:13:55;13.90;99.90
20400;DHT22;10359;53.596;22.520;2023-04-25T01:16:24;14.00;99.90
20400;DHT22;10359;53.596;22.520;2023-04-25T01:18:55;13.90;99.90
20400;DHT22;10359;53.596;22.520;2023-04-25T01:21:26;14.00;99.90
20400;DHT22;10359;53.596;22.520;2023-04-25T01:23:58;14.00;99.90
20400;DHT22;10359;53.596;22.520;2023-04-25T01:26:27;14.00;99.90
20400;DHT22;10359;53.596;22.520;2023-04-25T01:28:57;14.00;99.90
20400;DHT22;10359;53.596;22.520;2023-04-25T01:31:27;13.90;99.90
20400;DHT22;10359;53.596;22.520;2023-04-25T01:33:58;13.90;99.90
20400;DHT22;10359;53.596;22.520;2023-04-25T01:36:29;13.90;99.90
20400;DHT22;10359;53.596;22.520;2023-04-25T01:38:59;13.90;99.90
20400;DHT22;10359;53.596;22.520;2023-04-25T01:41:29;13.90;99.90
20400;DHT22;10359;53.596;22.520;2023-04-25T01:43:58;13.80;99.90
20400;DHT22;10359;53.596;22.520;2023-04-25T01:46:28;13.80;99.90
20400;DHT22;10359;53.596;22.520;2023-04-25T01:48:57;13.70;99.90
20400;DHT22;10359;53.596;22.520;2023-04-25T01:51:27;13.70;99.90
20400;DHT22;10359;53.596;22.520;2023-04-25T01:53:58;13.60;99.90
20400;DHT22;10359;53.596;22.520;2023-04-25T01:56:30;13.60;99.90
20400;DHT22;10359;53.596;22.520;2023-04-25T01:59:00;13.60;99.90
20400;DHT22;10359;53.596;22.520;2023-04-25T02:01:29;13.60;99.90
20400;DHT22;10359;53.596;22.520;2023-04-25T02:03:59;13.50;99.90
20400;DHT22;10359;53.596;22.520;2023-04-25T02:06:28;13.50;99.90
20400;DHT22;10359;53.596;22.520;2023-04-25T02:08:59;13.50;99.90
20400;DHT22;10359;53.596;22.520;2023-04-25T02:11:35;13.40;99.90
20400;DHT22;10359;53.596;22.520;2023-04-25T02:14:21;13.40;99.90
20400;DHT22;10359;53.596;22.520;2023-04-25T02:16:51;13.40;99.90
20400;DHT22;10359;53.596;22.520;2023-04-25T02:19:21;13.40;99.90
20400;DHT22;10359;53.596;22.520;2023-04-25T02:21:50;13.30;99.90
20400;DHT22;10359;53.596;22.520;2023-04-25T02:24:21;13.40;99.90
20400;DHT22;10359;53.596;22.520;2023-04-25T02:26:51;13.30;99.90
20400;DHT22;10359;53.596;22.520;2023-04-25T02:29:20;13.30;99.90
20400;DHT22;10359;53.596;22.520;2023-04-25T02:31:49;13.30;99.90
20400;DHT22;10359;53.596;22.520;2023-04-25T02:34:19;13.30;99.90
20400;DHT22;10359;53.596;22.520;2023-04-25T02:36:48;13.30;99.90
20400;DHT22;10359;53.596;22.520;2023-04-25T02:39:18;13.20;99.90
20400;DHT22;10359;53.596;22.520;2023-04-25T02:41:51;13.20;99.90
20400;DHT22;10359;53.596;22.520;2023-04-25T02:44:21;13.10;99.90
20400;DHT22;10359;53.596;22.520;2023-04-25T02:46:50;13.10;99.90
20400;DHT22;10359;53.596;22.520;2023-04-25T02:49:20;13.10;99.90
20400;DHT22;10359;53.596;22.520;2023-04-25T02:51:49;13.10;99.90
20400;DHT22;10359;53.596;22.520;2023-04-25T02:54:19;13.00;99.90
20400;DHT22;10359;53.596;22.520;2023-04-25T02:56:50;13.00;99.90
20400;DHT22;10359;53.596;22.520;2023-04-25T02:59:19;12.90;99.90
20400;DHT22;10359;53.596;22.520;2023-04-25T03:01:48;12.90;99.90
20400;DHT22;10359;53.596;22.520;2023-04-25T03:04:18;12.80;99.90
20400;DHT22;10359;53.596;22.520;2023-04-25T03:06:48;12.70;99.90
20400;DHT22;10359;53.596;22.520;2023-04-25T03:09:18;12.70;99.90
20400;DHT22;10359;53.596;22.520;2023-04-25T03:11:47;12.60;99.90
20400;DHT22;10359;53.596;22.520;2023-04-25T03:14:18;12.60;99.90
20400;DHT22;10359;53.596;22.520;2023-04-25T03:16:47;12.50;99.90
20400;DHT22;10359;53.596;22.520;2023-04-25T03:19:17;12.50;99.90
20400;DHT22;10359;53.596;22.520;2023-04-25T03:21:48;12.50;99.90
20400;DHT22;10359;53.596;22.520;2023-04-25T03:24:17;12.30;99.90
20400;DHT22;10359;53.596;22.520;2023-04-25T03:26:46;12.30;99.90
20400;DHT22;10359;53.596;22.520;2023-04-25T03:29:16;12.30;99.90
20400;DHT22;10359;53.596;22.520;2023-04-25T03:31:46;12.20;99.90
20400;DHT22;10359;53.596;22.520;2023-04-25T03:34:16;12.20;99.90
20400;DHT22;10359;53.596;22.520;2023-04-25T03:36:45;12.10;99.90
20400;DHT22;10359;53.596;22.520;2023-04-25T03:39:14;12.00;99.90
20400;DHT22;10359;53.596;22.520;2023-04-25T03:41:43;11.90;99.90
20400;DHT22;10359;53.596;22.520;2023-04-25T03:44:13;11.90;99.90
20400;DHT22;10359;53.596;22.520;2023-04-25T03:46:42;11.80;99.90
20400;DHT22;10359;53.596;22.520;2023-04-25T03:49:13;11.70;99.90
20400;DHT22;10359;53.596;22.520;2023-04-25T03:51:45;11.70;99.90
20400;DHT22;10359;53.596;22.520;2023-04-25T03:54:14;11.60;99.90
20400;DHT22;10359;53.596;22.520;2023-04-25T03:56:44;11.60;99.90
20400;DHT22;10359;53.596;22.520;2023-04-25T03:59:14;11.60;99.90
20400;DHT22;10359;53.596;22.520;2023-04-25T04:01:43;11.60;99.90
20400;DHT22;10359;53.596;22.520;2023-04-25T04:04:14;11.60;99.90
20400;DHT22;10359;53.596;22.520;2023-04-25T04:06:45;11.50;99.90
20400;DHT22;10359;53.596;22.520;2023-04-25T04:09:15;11.50;99.90
20400;DHT22;10359;53.596;22.520;2023-04-25T04:11:44;11.60;99.90
20400;DHT22;10359;53.596;22.520;2023-04-25T04:14:14;11.60;99.90
20400;DHT22;10359;53.596;22.520;2023-04-25T04:16:43;11.60;99.90
20400;DHT22;10359;53.596;22.520;2023-04-25T04:19:14;11.70;99.90
20400;DHT22;10359;53.596;22.520;2023-04-25T04:21:44;11.60;99.90
20400;DHT22;10359;53.596;22.520;2023-04-25T04:24:13;11.60;99.90
20400;DHT22;10359;53.596;22.520;2023-04-25T04:26:42;11.60;99.90
20400;DHT22;10359;53.596;22.520;2023-04-25T04:29:13;11.60;99.90
20400;DHT22;10359;53.596;22.520;2023-04-25T04:31:50;11.50;99.90
20400;DHT22;10359;53.596;22.520;2023-04-25T04:34:21;11.50;99.90
20400;DHT22;10359;53.596;22.520;2023-04-25T04:36:52;11.40;99.90
20400;DHT22;10359;53.596;22.520;2023-04-25T04:39:21;11.40;99.90
20400;DHT22;10359;53.596;22.520;2023-04-25T04:41:51;11.30;99.90
20400;DHT22;10359;53.596;22.520;2023-04-25T04:44:21;11.30;99.90
20400;DHT22;10359;53.596;22.520;2023-04-25T04:46:50;11.30;99.90
20400;DHT22;10359;53.596;22.520;2023-04-25T04:49:21;11.40;99.90
20400;DHT22;10359;53.596;22.520;2023-04-25T04:51:56;11.40;99.90
20400;DHT22;10359;53.596;22.520;2023-04-25T04:54:27;11.40;99.90
20400;DHT22;10359;53.596;22.520;2023-04-25T04:56:56;11.40;99.90
20400;DHT22;10359;53.596;22.520;2023-04-25T04:59:26;11.40;99.90
20400;DHT22;10359;53.596;22.520;2023-04-25T05:01:55;11.50;99.90
20400;DHT22;10359;53.596;22.520;2023-04-25T05:04:27;11.60;99.90
20400;DHT22;10359;53.596;22.520;2023-04-25T05:06:57;11.70;99.90
20400;DHT22;10359;53.596;22.520;2023-04-25T05:09:31;11.80;99.90
20400;DHT22;10359;53.596;22.520;2023-04-25T05:12:00;11.90;99.90
20400;DHT22;10359;53.596;22.520;2023-04-25T05:14:30;11.90;99.90
20400;DHT22;10359;53.596;22.520;2023-04-25T05:17:00;12.00;99.90
20400;DHT22;10359;53.596;22.520;2023-04-25T05:19:34;12.10;99.90
20400;DHT22;10359;53.596;22.520;2023-04-25T05:22:03;12.20;99.90
20400;DHT22;10359;53.596;22.520;2023-04-25T05:24:33;12.30;99.90
20400;DHT22;10359;53.596;22.520;2023-04-25T05:27:02;12.40;99.90
20400;DHT22;10359;53.596;22.520;2023-04-25T05:29:31;12.40;99.90
20400;DHT22;10359;53.596;22.520;2023-04-25T05:32:00;12.50;99.90
20400;DHT22;10359;53.596;22.520;2023-04-25T05:34:30;12.50;99.90
20400;DHT22;10359;53.596;22.520;2023-04-25T05:37:00;12.60;99.90
20400;DHT22;10359;53.596;22.520;2023-04-25T05:39:30;12.60;99.90
20400;DHT22;10359;53.596;22.520;2023-04-25T05:41:59;12.70;99.90
20400;DHT22;10359;53.596;22.520;2023-04-25T05:44:30;12.70;99.90
20400;DHT22;10359;53.596;22.520;2023-04-25T05:46:59;12.90;99.90
20400;DHT22;10359;53.596;22.520;2023-04-25T05:49:29;12.90;99.90
20400;DHT22;10359;53.596;22.520;2023-04-25T05:51:59;13.10;99.90
20400;DHT22;10359;53.596;22.520;2023-04-25T05:54:28;13.10;99.90
20400;DHT22;10359;53.596;22.520;2023-04-25T05:56:58;13.30;99.90
20400;DHT22;10359;53.596;22.520;2023-04-25T05:59:27;13.40;99.90
20400;DHT22;10359;53.596;22.520;2023-04-25T06:01:56;13.40;99.90
20400;DHT22;10359;53.596;22.520;2023-04-25T06:04:25;13.60;99.90
20400;DHT22;10359;53.596;22.520;2023-04-25T06:06:55;13.70;99.90
20400;DHT22;10359;53.596;22.520;2023-04-25T06:09:26;13.80;99.90
20400;DHT22;10359;53.596;22.520;2023-04-25T06:11:55;13.80;99.90
20400;DHT22;10359;53.596;22.520;2023-04-25T06:14:24;13.90;99.90
20400;DHT22;10359;53.596;22.520;2023-04-25T06:16:56;14.00;99.90
20400;DHT22;10359;53.596;22.520;2023-04-25T06:19:25;14.00;99.90
20400;DHT22;10359;53.596;22.520;2023-04-25T06:21:54;14.00;99.90
20400;DHT22;10359;53.596;22.520;2023-04-25T06:24:25;14.10;99.90
20400;DHT22;10359;53.596;22.520;2023-04-25T06:26:54;14.10;99.90
20400;DHT22;10359;53.596;22.520;2023-04-25T06:29:24;14.20;99.90
20400;DHT22;10359;53.596;22.520;2023-04-25T06:31:53;14.30;99.90
20400;DHT22;10359;53.596;22.520;2023-04-25T06:34:22;14.40;99.90
20400;DHT22;10359;53.596;22.520;2023-04-25T06:36:52;14.50;99.90
20400;DHT22;10359;53.596;22.520;2023-04-25T06:39:21;14.50;99.90
20400;DHT22;10359;53.596;22.520;2023-04-25T06:41:52;14.50;99.90
20400;DHT22;10359;53.596;22.520;2023-04-25T06:44:21;14.60;99.90
20400;DHT22;10359;53.596;22.520;2023-04-25T06:46:53;14.50;99.90
20400;DHT22;10359;53.596;22.520;2023-04-25T06:49:22;14.60;99.90
20400;DHT22;10359;53.596;22.520;2023-04-25T06:51:52;14.80;99.90
20400;DHT22;10359;53.596;22.520;2023-04-25T06:54:21;14.70;99.90
20400;DHT22;10359;53.596;22.520;2023-04-25T06:56:53;14.90;99.90
20400;DHT22;10359;53.596;22.520;2023-04-25T06:59:23;15.10;99.90
20400;DHT22;10359;53.596;22.520;2023-04-25T07:01:52;15.00;99.90
20400;DHT22;10359;53.596;22.520;2023-04-25T07:04:21;15.10;99.90
20400;DHT22;10359;53.596;22.520;2023-04-25T07:06:51;15.20;99.90
20400;DHT22;10359;53.596;22.520;2023-04-25T07:09:21;15.30;99.90
20400;DHT22;10359;53.596;22.520;2023-04-25T07:11:50;15.40;99.90
20400;DHT22;10359;53.596;22.520;2023-04-25T07:14:21;15.60;99.90
20400;DHT22;10359;53.596;22.520;2023-04-25T07:16:50;15.60;99.90
20400;DHT22;10359;53.596;22.520;2023-04-25T07:19:19;15.40;99.90
20400;DHT22;10359;53.596;22.520;2023-04-25T07:21:49;15.50;99.90
20400;DHT22;10359;53.596;22.520;2023-04-25T07:24:20;15.60;99.90
20400;DHT22;10359;53.596;22.520;2023-04-25T07:26:49;15.70;99.90
20400;DHT22;10359;53.596;22.520;2023-04-25T07:29:20;15.80;99.90
20400;DHT22;10359;53.596;22.520;2023-04-25T07:31:50;16.00;99.90
20400;DHT22;10359;53.596;22.520;2023-04-25T07:34:19;16.10;99.90
20400;DHT22;10359;53.596;22.520;2023-04-25T07:36:48;16.00;99.90
20400;DHT22;10359;53.596;22.520;2023-04-25T07:39:18;15.90;99.90
20400;DHT22;10359;53.596;22.520;2023-04-25T07:41:47;16.00;99.90
20400;DHT22;10359;53.596;22.520;2023-04-25T07:44:21;16.10;99.90
20400;DHT22;10359;53.596;22.520;2023-04-25T07:46:51;16.30;99.90
20400;DHT22;10359;53.596;22.520;2023-04-25T07:49:20;16.40;99.90
20400;DHT22;10359;53.596;22.520;2023-04-25T07:51:49;16.70;99.90
20400;DHT22;10359;53.596;22.520;2023-04-25T07:54:19;17.10;99.90
20400;DHT22;10359;53.596;22.520;2023-04-25T07:56:48;17.20;99.90
20400;DHT22;10359;53.596;22.520;2023-04-25T07:59:21;17.50;99.90
20400;DHT22;10359;53.596;22.520;2023-04-25T08:01:51;17.90;99.90
20400;DHT22;10359;53.596;22.520;2023-04-25T08:04:20;17.80;99.90
20400;DHT22;10359;53.596;22.520;2023-04-25T08:06:50;18.00;99.90
20400;DHT22;10359;53.596;22.520;2023-04-25T08:09:20;18.00;99.90
20400;DHT22;10359;53.596;22.520;2023-04-25T08:11:49;18.10;99.90
20400;DHT22;10359;53.596;22.520;2023-04-25T08:14:21;18.20;99.90
20400;DHT22;10359;53.596;22.520;2023-04-25T08:16:50;18.10;99.90
20400;DHT22;10359;53.596;22.520;2023-04-25T08:19:19;18.20;99.90
20400;DHT22;10359;53.596;22.520;2023-04-25T08:21:49;18.60;99.90
20400;DHT22;10359;53.596;22.520;2023-04-25T08:24:19;18.40;99.90
20400;DHT22;10359;53.596;22.520;2023-04-25T08:26:49;18.20;99.90
20400;DHT22;10359;53.596;22.520;2023-04-25T08:29:19;17.90;99.90
20400;DHT22;10359;53.596;22.520;2023-04-25T08:31:50;17.70;99.90
20400;DHT22;10359;53.596;22.520;2023-04-25T08:34:21;17.50;99.90
20400;DHT22;10359;53.596;22.520;2023-04-25T08:36:50;17.80;99.90
20400;DHT22;10359;53.596;22.520;2023-04-25T08:39:19;17.70;99.90
20400;DHT22;10359;53.596;22.520;2023-04-25T08:41:49;17.90;99.90
20400;DHT22;10359;53.596;22.520;2023-04-25T08:44:21;18.10;99.90
20400;DHT22;10359;53.596;22.520;2023-04-25T08:46:52;18.30;99.90
20400;DHT22;10359;53.596;22.520;2023-04-25T08:49:22;18.30;99.90
20400;DHT22;10359;53.596;22.520;2023-04-25T08:51:53;18.70;99.90
20400;DHT22;10359;53.596;22.520;2023-04-25T08:54:27;18.70;99.90
20400;DHT22;10359;53.596;22.520;2023-04-25T08:57:03;18.70;99.90
20400;DHT22;10359;53.596;22.520;2023-04-25T08:59:32;19.10;99.90
20400;DHT22;10359;53.596;22.520;2023-04-25T09:02:06;19.20;99.90
20400;DHT22;10359;53.596;22.520;2023-04-25T09:04:36;19.20;99.90
20400;DHT22;10359;53.596;22.520;2023-04-25T09:07:06;19.80;99.90
20400;DHT22;10359;53.596;22.520;2023-04-25T09:09:35;20.10;99.90
20400;DHT22;10359;53.596;22.520;2023-04-25T09:12:05;20.10;99.90
20400;DHT22;10359;53.596;22.520;2023-04-25T09:14:34;20.10;99.90
20400;DHT22;10359;53.596;22.520;2023-04-25T09:17:06;20.30;99.90
20400;DHT22;10359;53.596;22.520;2023-04-25T09:19:36;20.30;99.90
20400;DHT22;10359;53.596;22.520;2023-04-25T09:22:08;19.80;99.90
20400;DHT22;10359;53.596;22.520;2023-04-25T09:24:39;20.10;99.90
20400;DHT22;10359;53.596;22.520;2023-04-25T09:27:10;20.10;99.90
20400;DHT22;10359;53.596;22.520;2023-04-25T09:29:40;19.60;99.90
20400;DHT22;10359;53.596;22.520;2023-04-25T09:32:17;19.30;99.90
20400;DHT22;10359;53.596;22.520;2023-04-25T09:34:49;19.50;99.90
20400;DHT22;10359;53.596;22.520;2023-04-25T09:37:19;19.50;99.90
20400;DHT22;10359;53.596;22.520;2023-04-25T09:39:50;19.70;99.90
20400;DHT22;10359;53.596;22.520;2023-04-25T09:42:22;19.80;99.90
20400;DHT22;10359;53.596;22.520;2023-04-25T09:44:53;19.90;99.90
20400;DHT22;10359;53.596;22.520;2023-04-25T09:47:26;19.40;99.90
20400;DHT22;10359;53.596;22.520;2023-04-25T09:49:56;19.50;99.90
20400;DHT22;10359;53.596;22.520;2023-04-25T09:52:26;19.50;99.90
20400;DHT22;10359;53.596;22.520;2023-04-25T09:54:55;19.30;99.90
20400;DHT22;10359;53.596;22.520;2023-04-25T09:57:24;19.90;99.90
20400;DHT22;10359;53.596;22.520;2023-04-25T09:59:54;20.10;99.90
20400;DHT22;10359;53.596;22.520;2023-04-25T10:02:26;20.40;99.90
20400;DHT22;10359;53.596;22.520;2023-04-25T10:04:56;20.60;99.90
20400;DHT22;10359;53.596;22.520;2023-04-25T10:07:29;21.10;99.90
20400;DHT22;10359;53.596;22.520;2023-04-25T10:10:01;21.30;99.90
20400;DHT22;10359;53.596;22.520;2023-04-25T10:12:32;21.20;99.90
20400;DHT22;10359;53.596;22.520;2023-04-25T10:15:03;20.70;99.90
20400;DHT22;10359;53.596;22.520;2023-04-25T10:17:35;20.90;99.90
20400;DHT22;10359;53.596;22.520;2023-04-25T10:20:08;21.40;99.90
20400;DHT22;10359;53.596;22.520;2023-04-25T10:22:41;21.60;99.90
20400;DHT22;10359;53.596;22.520;2023-04-25T10:25:11;21.50;99.90
20400;DHT22;10359;53.596;22.520;2023-04-25T10:27:41;21.50;99.90
20400;DHT22;10359;53.596;22.520;2023-04-25T10:30:14;22.20;99.90
20400;DHT22;10359;53.596;22.520;2023-04-25T10:32:46;21.60;99.90
20400;DHT22;10359;53.596;22.520;2023-04-25T10:35:23;21.70;99.90
20400;DHT22;10359;53.596;22.520;2023-04-25T10:38:00;21.60;99.90
20400;DHT22;10359;53.596;22.520;2023-04-25T10:40:31;21.90;99.90
20400;DHT22;10359;53.596;22.520;2023-04-25T10:43:35;22.20;99.90
20400;DHT22;10359;53.596;22.520;2023-04-25T10:46:16;22.00;99.90
20400;DHT22;10359;53.596;22.520;2023-04-25T10:48:51;22.10;99.90
20400;DHT22;10359;53.596;22.520;2023-04-25T10:51:23;22.20;99.90
20400;DHT22;10359;53.596;22.520;2023-04-25T10:54:00;22.00;99.90
20400;DHT22;10359;53.596;22.520;2023-04-25T10:56:30;21.90;99.90
20400;DHT22;10359;53.596;22.520;2023-04-25T10:59:08;21.70;99.90
20400;DHT22;10359;53.596;22.520;2023-04-25T11:01:39;21.40;99.90
20400;DHT22;10359;53.596;22.520;2023-04-25T11:04:23;21.60;99.90
20400;DHT22;10359;53.596;22.520;2023-04-25T11:07:13;22.00;99.90
20400;DHT22;10359;53.596;22.520;2023-04-25T11:09:46;22.10;99.90
20400;DHT22;10359;53.596;22.520;2023-04-25T11:12:15;21.60;99.90
20400;DHT22;10359;53.596;22.520;2023-04-25T11:14:45;21.40;99.90
20400;DHT22;10359;53.596;22.520;2023-04-25T11:17:15;20.80;99.90
20400;DHT22;10359;53.596;22.520;2023-04-25T11:19:48;20.50;99.90
20400;DHT22;10359;53.596;22.520;2023-04-25T11:22:18;20.10;99.90
20400;DHT22;10359;53.596;22.520;2023-04-25T11:24:48;19.60;99.90
20400;DHT22;10359;53.596;22.520;2023-04-25T11:27:17;19.30;99.90
20400;DHT22;10359;53.596;22.520;2023-04-25T11:29:47;19.00;99.90
20400;DHT22;10359;53.596;22.520;2023-04-25T11:32:18;19.40;99.90
20400;DHT22;10359;53.596;22.520;2023-04-25T11:34:50;19.20;99.90
20400;DHT22;10359;53.596;22.520;2023-04-25T11:37:21;18.80;99.90
20400;DHT22;10359;53.596;22.520;2023-04-25T11:39:52;18.90;99.90
20400;DHT22;10359;53.596;22.520;2023-04-25T11:42:21;19.10;99.90
20400;DHT22;10359;53.596;22.520;2023-04-25T11:44:51;19.20;99.90
20400;DHT22;10359;53.596;22.520;2023-04-25T11:47:21;19.10;99.90
20400;DHT22;10359;53.596;22.520;2023-04-25T11:49:58;19.20;99.90
20400;DHT22;10359;53.596;22.520;2023-04-25T11:52:39;18.70;99.90
20400;DHT22;10359;53.596;22.520;2023-04-25T11:55:10;18.90;99.90
20400;DHT22;10359;53.596;22.520;2023-04-25T11:57:42;18.70;99.90
20400;DHT22;10359;53.596;22.520;2023-04-25T12:00:13;18.10;99.90
20400;DHT22;10359;53.596;22.520;2023-04-25T12:02:47;18.60;99.90
20400;DHT22;10359;53.596;22.520;2023-04-25T12:05:18;19.10;99.90
20400;DHT22;10359;53.596;22.520;2023-04-25T12:08:10;19.10;99.90
20400;DHT22;10359;53.596;22.520;2023-04-25T12:10:42;18.50;99.90
20400;DHT22;10359;53.596;22.520;2023-04-25T12:13:19;18.80;99.90
20400;DHT22;10359;53.596;22.520;2023-04-25T12:15:50;19.20;99.90
20400;DHT22;10359;53.596;22.520;2023-04-25T12:18:21;19.30;99.90
20400;DHT22;10359;53.596;22.520;2023-04-25T12:20:54;19.30;99.90
20400;DHT22;10359;53.596;22.520;2023-04-25T12:23:27;19.20;99.90
20400;DHT22;10359;53.596;22.520;2023-04-25T12:25:56;19.60;99.90
20400;DHT22;10359;53.596;22.520;2023-04-25T12:28:26;20.00;99.90
20400;DHT22;10359;53.596;22.520;2023-04-25T12:30:57;20.00;99.90
20400;DHT22;10359;53.596;22.520;2023-04-25T12:33:28;20.00;99.90
20400;DHT22;10359;53.596;22.520;2023-04-25T12:36:01;20.20;99.90
20400;DHT22;10359;53.596;22.520;2023-04-25T12:38:37;19.90;99.90
20400;DHT22;10359;53.596;22.520;2023-04-25T12:41:08;20.10;99.90
20400;DHT22;10359;53.596;22.520;2023-04-25T12:43:37;19.70;99.90
20400;DHT22;10359;53.596;22.520;2023-04-25T12:46:07;19.80;99.90
20400;DHT22;10359;53.596;22.520;2023-04-25T12:48:36;20.30;99.90
20400;DHT22;10359;53.596;22.520;2023-04-25T12:51:07;20.60;99.90
20400;DHT22;10359;53.596;22.520;2023-04-25T12:53:37;20.70;99.90
20400;DHT22;10359;53.596;22.520;2023-04-25T12:56:08;20.50;99.90
20400;DHT22;10359;53.596;22.520;2023-04-25T12:58:37;20.10;99.90
20400;DHT22;10359;53.596;22.520;2023-04-25T13:01:07;19.40;99.90
20400;DHT22;10359;53.596;22.520;2023-04-25T13:03:37;19.70;99.90
20400;DHT22;10359;53.596;22.520;2023-04-25T13:06:08;19.90;99.90
20400;DHT22;10359;53.596;22.520;2023-04-25T13:08:38;19.30;99.90
20400;DHT22;10359;53.596;22.520;2023-04-25T13:11:08;19.30;99.90
20400;DHT22;10359;53.596;22.520;2023-04-25T13:13:38;18.90;99.90
20400;DHT22;10359;53.596;22.520;2023-04-25T13:16:09;19.20;99.90
20400;DHT22;10359;53.596;22.520;2023-04-25T13:18:39;18.90;99.90
20400;DHT22;10359;53.596;22.520;2023-04-25T13:21:11;18.50;99.90
20400;DHT22;10359;53.596;22.520;2023-04-25T13:23:41;19.00;99.90
20400;DHT22;10359;53.596;22.520;2023-04-25T13:26:12;18.90;99.90
20400;DHT22;10359;53.596;22.520;2023-04-25T13:28:42;19.40;99.90
20400;DHT22;10359;53.596;22.520;2023-04-25T13:31:12;19.70;99.90
20400;DHT22;10359;53.596;22.520;2023-04-25T13:33:42;20.20;99.90
20400;DHT22;10359;53.596;22.520;2023-04-25T13:36:13;20.10;99.90
20400;DHT22;10359;53.596;22.520;2023-04-25T13:38:42;20.00;99.90
20400;DHT22;10359;53.596;22.520;2023-04-25T13:41:15;20.00;99.90
20400;DHT22;10359;53.596;22.520;2023-04-25T13:43:46;19.50;99.90
20400;DHT22;10359;53.596;22.520;2023-04-25T13:46:16;19.40;99.90
20400;DHT22;10359;53.596;22.520;2023-04-25T13:49:06;19.10;99.90
20400;DHT22;10359;53.596;22.520;2023-04-25T13:51:41;18.30;99.90
20400;DHT22;10359;53.596;22.520;2023-04-25T13:54:11;18.00;99.90
20400;DHT22;10359;53.596;22.520;2023-04-25T13:56:41;17.40;99.90
20400;DHT22;10359;53.596;22.520;2023-04-25T13:59:10;16.70;99.90
20400;DHT22;10359;53.596;22.520;2023-04-25T14:01:40;16.30;99.90
20400;DHT22;10359;53.596;22.520;2023-04-25T14:04:09;16.10;99.90
20400;DHT22;10359;53.596;22.520;2023-04-25T14:06:41;15.80;99.90
20400;DHT22;10359;53.596;22.520;2023-04-25T14:09:11;15.60;99.90
20400;DHT22;10359;53.596;22.520;2023-04-25T14:11:40;15.40;99.90
20400;DHT22;10359;53.596;22.520;2023-04-25T14:14:09;15.10;99.90
20400;DHT22;10359;53.596;22.520;2023-04-25T14:16:39;14.80;99.90
20400;DHT22;10359;53.596;22.520;2023-04-25T14:19:09;14.70;99.90
20400;DHT22;10359;53.596;22.520;2023-04-25T14:21:40;14.70;99.90
20400;DHT22;10359;53.596;22.520;2023-04-25T14:24:10;14.50;99.90
20400;DHT22;10359;53.596;22.520;2023-04-25T14:26:40;14.10;99.90
20400;DHT22;10359;53.596;22.520;2023-04-25T14:29:10;14.20;99.90
20400;DHT22;10359;53.596;22.520;2023-04-25T14:31:40;14.10;99.90
20400;DHT22;10359;53.596;22.520;2023-04-25T14:34:10;14.10;99.90
20400;DHT22;10359;53.596;22.520;2023-04-25T14:36:41;14.30;99.90
20400;DHT22;10359;53.596;22.520;2023-04-25T14:39:10;14.20;99.90
20400;DHT22;10359;53.596;22.520;2023-04-25T14:41:40;14.20;99.90
20400;DHT22;10359;53.596;22.520;2023-04-25T14:44:09;14.30;99.90
20400;DHT22;10359;53.596;22.520;2023-04-25T14:46:38;14.20;99.90
20400;DHT22;10359;53.596;22.520;2023-04-25T14:49:08;13.80;99.90
20400;DHT22;10359;53.596;22.520;2023-04-25T14:51:37;13.60;99.90
20400;DHT22;10359;53.596;22.520;2023-04-25T14:54:08;13.60;99.90
20400;DHT22;10359;53.596;22.520;2023-04-25T14:56:38;13.20;99.90
20400;DHT22;10359;53.596;22.520;2023-04-25T14:59:08;13.50;99.90
20400;DHT22;10359;53.596;22.520;2023-04-25T15:01:38;13.50;99.90
20400;DHT22;10359;53.596;22.520;2023-04-25T15:04:09;13.70;99.90
20400;DHT22;10359;53.596;22.520;2023-04-25T15:06:40;13.60;99.90
20400;DHT22;10359;53.596;22.520;2023-04-25T15:09:12;13.70;99.90
20400;DHT22;10359;53.596;22.520;2023-04-25T15:11:42;13.60;99.90
20400;DHT22;10359;53.596;22.520;2023-04-25T15:14:11;13.70;99.90
20400;DHT22;10359;53.596;22.520;2023-04-25T15:16:40;13.60;99.90
20400;DHT22;10359;53.596;22.520;2023-04-25T15:19:11;13.90;99.90
20400;DHT22;10359;53.596;22.520;2023-04-25T15:21:40;13.80;99.90
20400;DHT22;10359;53.596;22.520;2023-04-25T15:24:12;13.90;99.90
20400;DHT22;10359;53.596;22.520;2023-04-25T15:26:47;13.60;99.90
20400;DHT22;10359;53.596;22.520;2023-04-25T15:29:16;13.50;99.90
20400;DHT22;10359;53.596;22.520;2023-04-25T15:31:46;13.40;99.90
20400;DHT22;10359;53.596;22.520;2023-04-25T15:34:16;13.10;99.90
20400;DHT22;10359;53.596;22.520;2023-04-25T15:36:45;13.00;99.90